• Join FlightAware (Why Join?)
  • Login
  • US Flag 
05:35AM EDT


 

Airport Tracker/Info


-or-


 

Live Flight TrackerFlight Track Log ✈ AWI3650 ✈ 10-Apr-2013 ✈ KPHL - KBDL

Flight Track Log - Related Links

Times and Time Zones

All times are in EDT time to prevent confusion due to time zone crossing. See the AWI3650 flight status page for this flight to view local times or setup timezone preferences in your user account.

Time Position Orientation Groundspeed Altitude Reporting Facility
EDT Latitude Longitude Course Direction KTS MPH feet Rate Location/Type
06:48PM 39.8667 -75.2833 37° Northeast 153 176 600  Level Philadelphia TRACON
06:48PM 39.8514 -75.2867 190° South 156 180 1,400 2,460 Climbing FAA TRACON SMA TRACON (SMA)
06:48PM 39.8381 -75.3003 218° Southwest 160 184 2,200 1,920 Climbing FAA TRACON SMA TRACON (SMA)
06:49PM 39.8275 -75.3106 217° Southwest 165 190 2,700 1,800 Climbing FAA TRACON SMA TRACON (SMA)
06:49PM 39.8133 -75.3244 217° Southwest 186 214 3,400 2,220 Climbing FAA TRACON SMA TRACON (SMA)
06:49PM 39.7947 -75.3414 215° Southwest 213 245 4,200 1,920 Climbing FAA TRACON SMA TRACON (SMA)
06:50PM 39.8167 -74.9368 90° East  Level FlightAware Approximate
06:50PM 39.7792 -75.3539 212° Southwest 228 262 4,700  Level FAA TRACON SMA TRACON (SMA)
06:50PM 39.7578 -75.3542 181° South 261 300 5,400 2,100 Climbing FAA TRACON SMA TRACON (SMA)
06:50PM 39.7361 -75.3314 141° Southeast 283 326 6,100 2,400 Climbing FAA TRACON SMA TRACON (SMA)
06:51PM 39.8100 -74.8333 105° East  Level FlightAware Approximate
06:51PM 39.7267 -75.2975 110° East 293 337 7,000  Level FAA TRACON SMA TRACON (SMA)
06:51PM 39.7294 -75.2661 83° East 309 356 7,600 2,400 Climbing FAA TRACON SMA TRACON (SMA)
06:51PM 39.7358 -75.2239 79° East 317 365 8,600 2,820 Climbing FAA TRACON SMA TRACON (SMA)
06:52PM 39.7898 -74.7320 105° East  Level FlightAware Approximate
06:52PM 39.7394 -75.1903 82° East 311 358 9,500  Level FAA TRACON SMA TRACON (SMA)
06:52PM 39.7444 -75.1558 79° East 313 360 10,100 2,220 Climbing FAA TRACON SMA TRACON (SMA)
06:52PM 39.7469 -75.1106 86° East 324 373 11,000 2,220 Climbing FAA TRACON SMA TRACON (SMA)
06:53PM 39.8269 -74.6565 37° Northeast  Level FlightAware Approximate
06:53PM 39.7508 -75.0744 82° East 330 380 11,600  Level FAA TRACON SMA TRACON (SMA)
06:53PM 39.7572 -75.0292 80° East 345 397 12,000 600 Climbing FAA TRACON SMA TRACON (SMA)
06:53PM 39.7603 -74.9889 84° East 350 403 12,000  Level FAA TRACON SMA TRACON (SMA)
06:54PM 39.7658 -74.9517 79° East 339 390 12,000  Level FAA TRACON SMA TRACON (SMA)
06:54PM 39.7714 -74.9047 81° East 350 403 12,000  Level FAA TRACON SMA TRACON (SMA)
06:54PM 39.7808 -74.8678 72° East 340 391 12,000 720 Level FAA TRACON SMA TRACON (SMA)
06:55PM 39.7847 -74.8317 82° East 348 400 12,500 1,500 Climbing FAA TRACON SMA TRACON (SMA)
06:55PM 39.7864 -74.7906 87° East 354 407 13,000 2,220 Climbing FAA TRACON SMA TRACON (SMA)
06:55PM 39.7869 -74.7419 89° East 364 419 14,000 2,520 Climbing FAA TRACON SMA TRACON (SMA)
06:56PM 39.7981 -74.7033 69° East 355 409 14,700 2,220 Climbing FAA TRACON SMA TRACON (SMA)
06:56PM 39.8242 -74.6717 43° Northeast 334 384 15,500 1,920 Climbing FAA TRACON SMA TRACON (SMA)
06:56PM 39.8469 -74.6528 32° Northeast 333 383 16,000 1,620 Climbing FAA TRACON SMA TRACON (SMA)
06:57PM 39.8728 -74.6364 26° Northeast 332 382 16,600 2,100 Climbing FAA TRACON SMA TRACON (SMA)
06:57PM 39.9039 -74.6125 30° Northeast 332 382 17,400 2,100 Climbing FAA TRACON SMA TRACON (SMA)
06:57PM 39.9269 -74.5925 34° Northeast 337 388 18,000 1,200 Climbing FAA TRACON SMA TRACON (SMA)
06:58PM 39.9336 -74.5858 37° Northeast 331 381 18,200 300 Climbing FAA TRACON SMA TRACON (SMA)
06:58PM 39.9336 -74.5858 293° West 331 381 18,200 1,320 Level FAA TRACON SMA TRACON (SMA)
07:00PM 40.1119 -74.3997 39° Northeast 349 402 21,000 960 Climbing New York Center
07:01PM 40.1914 -74.3222 37° Northeast 354 407 21,000  Level New York Center
07:02PM 40.2708 -74.2419 38° Northeast 354 407 21,000  Level New York Center
07:03PM 40.3344 -74.1364 52° Northeast 359 413 21,000  Level New York Center
07:04PM 40.3939 -74.0247 55° Northeast 366 421 21,000 -600 Level New York Center
07:06PM 40.5058 -73.8294 53° Northeast 378 435 19,300 -720 Descending Boston Center
07:07PM 40.5614 -73.7239 55° Northeast 371 427 19,000 -180 Descending Boston Center
07:08PM 40.6333 -73.5997 53° Northeast 363 418 19,000  Level Boston Center
07:09PM 40.6908 -73.4939 54° Northeast 357 411 19,000  Level Boston Center
07:10PM 40.7481 -73.3853 55° Northeast 357 411 19,000  Level Boston Center
07:11PM 40.8114 -73.2819 51° Northeast 357 411 19,000 -60 Level Boston Center
07:12PM 40.8892 -73.1950 40° Northeast 357 411 18,900 -900 Descending Boston Center
07:13PM 40.9708 -73.1025 41° Northeast 352 405 17,300 -1,680 Descending Boston Center
07:14PM 41.0422 -73.0153 43° Northeast 352 405 15,700 -1,560 Descending Boston Center
07:15PM 41.1114 -72.9278 44° Northeast 347 399 14,200 -1,500 Descending Boston Center
07:16PM 41.1825 -72.8428 42° Northeast 342 394 12,700 -1,560 Descending Boston Center
07:17PM 41.2494 -72.7714 39° Northeast 329 379 11,200 -900 Descending Boston Center
07:18PM 41.3164 -72.7136 33° Northeast 304 350 11,000 -300 Descending Boston Center
07:19PM 41.3853 -72.6919 13° North 306 352 10,700 -600 Descending Boston Center
07:20PM 41.4644 -72.6422 25° Northeast 299 344 9,900 -1,140 Descending Boston Center
07:21PM 41.5269 -72.6064 23° Northeast 295 339 8,600 -1,500 Descending Boston Center
07:22PM 41.5958 -72.5678 23° Northeast 292 336 7,200 -1,500 Descending Boston Center
07:23PM 41.6689 -72.5233 24° Northeast 290 334 5,800 -1,140 Descending Boston Center
07:24PM 41.7461 -72.4847 20° North 288 331 5,000 -420 Descending Boston Center
07:25PM 41.8356 -72.4400 20° North 292 336 5,000 -480 Level Boston Center
07:26PM 41.9106 -72.4317 North 238 274 4,000 -1,020 Descending Boston Center
07:27PM 41.9731 -72.4486 349° North 227 261 2,900 -780 Descending Boston Center
07:28PM 42.0253 -72.4764 338° Northwest 202 232 2,500 -420 Descending Boston Center